createdAt,value
2023-05-22T00:00:08.180Z,89.63
2023-05-22T00:01:08.958Z,89.73
2023-05-22T00:02:08.257Z,89.12
2023-05-22T00:03:09.706Z,88.82
2023-05-22T00:04:09.010Z,88.82
2023-05-22T00:05:08.923Z,88.78
2023-05-22T00:06:08.111Z,88.78
2023-05-22T00:07:08.875Z,88.82
2023-05-22T00:08:09.710Z,88.82
2023-05-22T00:09:08.070Z,89.43
2023-05-22T00:10:08.061Z,89.18
2023-05-22T00:11:08.875Z,89.28
2023-05-22T00:12:08.714Z,89.43
2023-05-22T00:13:08.879Z,89.73
2023-05-22T00:14:08.036Z,89.08
2023-05-22T00:15:09.802Z,89.08
2023-05-22T00:16:08.690Z,89.79
2023-05-22T00:17:08.862Z,90.40
2023-05-22T00:18:08.020Z,90.09
2023-05-22T00:19:09.090Z,90.09
2023-05-22T00:20:08.124Z,89.69
2023-05-22T00:21:09.619Z,89.18
2023-05-22T00:22:08.994Z,89.48
2023-05-22T00:23:07.941Z,89.99
2023-05-22T00:24:09.494Z,89.08
2023-05-22T00:25:09.280Z,88.98
2023-05-22T00:26:08.697Z,88.37
2023-05-22T00:27:07.910Z,88.37
2023-05-22T00:28:08.719Z,88.27
2023-05-22T00:29:08.552Z,88.48
2023-05-22T00:30:08.811Z,87.97
2023-05-22T00:31:08.543Z,87.97
2023-05-22T00:32:08.691Z,88.37
2023-05-22T00:33:07.888Z,88.27
2023-05-22T00:34:08.661Z,88.07
2023-05-22T00:35:08.533Z,88.57
2023-05-22T00:36:07.801Z,88.17
2023-05-22T00:37:09.417Z,87.97
2023-05-22T00:38:08.766Z,88.62
2023-05-22T00:39:07.770Z,89.12
2023-05-22T00:40:08.374Z,88.92
2023-05-22T00:41:08.581Z,89.23
2023-05-22T00:42:07.743Z,88.72
2023-05-22T00:43:09.292Z,89.43
2023-05-22T00:44:08.538Z,89.63
2023-05-22T00:45:08.532Z,89.73
2023-05-22T00:46:08.477Z,89.43
2023-05-22T00:47:08.522Z,89.94
2023-05-22T00:48:07.704Z,90.34
2023-05-22T00:49:08.494Z,90.14
2023-05-22T00:50:07.665Z,90.03
2023-05-22T00:51:08.916Z,89.94
2023-05-22T00:52:08.111Z,90.44
2023-05-22T00:53:08.264Z,89.63
2023-05-22T00:54:09.483Z,89.32
2023-05-22T00:55:08.216Z,89.53
2023-05-22T00:56:07.577Z,89.63
2023-05-22T00:57:08.837Z,90.24
2023-05-22T00:58:08.392Z,90.24
2023-05-22T00:59:08.282Z,90.24
2023-05-22T01:00:08.380Z,90.44
2023-05-22T01:01:08.233Z,90.24
2023-05-22T01:02:07.871Z,90.14
2023-05-22T01:03:07.558Z,89.83
2023-05-22T01:04:08.494Z,89.43
2023-05-22T01:05:08.240Z,89.43
2023-05-22T01:06:07.494Z,89.83
2023-05-22T01:07:08.231Z,89.12
2023-05-22T01:08:08.225Z,89.06
2023-05-22T01:09:07.445Z,88.86
2023-05-22T01:10:09.130Z,88.96
2023-05-22T01:11:08.197Z,89.17
2023-05-22T01:12:07.401Z,89.57
2023-05-22T01:13:09.171Z,89.98
2023-05-22T01:14:08.359Z,90.28
2023-05-22T01:15:07.395Z,89.98
2023-05-22T01:16:08.886Z,90.79
2023-05-22T01:17:08.200Z,90.79
2023-05-22T01:18:08.135Z,90.38
2023-05-22T01:19:07.394Z,90.69
2023-05-22T01:20:08.865Z,90.79
2023-05-22T01:21:08.336Z,91.30
2023-05-22T01:22:07.312Z,91.19
2023-05-22T01:23:07.898Z,90.99
2023-05-22T01:24:08.180Z,91.09
2023-05-22T01:25:07.886Z,91.19
2023-05-22T01:26:08.170Z,91.39
2023-05-22T01:27:07.242Z,91.19
2023-05-22T01:28:08.091Z,90.99
2023-05-22T01:29:07.244Z,90.79
2023-05-22T01:30:08.827Z,90.08
2023-05-22T01:31:08.631Z,89.77
2023-05-22T01:32:07.190Z,89.06
2023-05-22T01:33:09.023Z,88.66
2023-05-22T01:34:08.404Z,88.56
2023-05-22T01:35:07.167Z,87.85
2023-05-22T01:36:08.412Z,88.15
2023-05-22T01:37:07.632Z,87.45
2023-05-22T01:38:07.147Z,87.59
2023-05-22T01:39:08.611Z,87.59
2023-05-22T01:40:08.072Z,88.20
2023-05-22T01:41:07.101Z,88.64
2023-05-22T01:42:07.751Z,88.84
2023-05-22T01:43:07.078Z,88.54
2023-05-22T01:44:07.768Z,88.54
2023-05-22T01:45:07.891Z,88.78
2023-05-22T01:46:07.114Z,89.50
2023-05-22T01:47:08.751Z,89.39
2023-05-22T01:48:07.895Z,89.80
2023-05-22T01:49:07.024Z,89.80
2023-05-22T01:50:08.425Z,90.35
2023-05-22T01:51:07.832Z,90.66
2023-05-22T01:52:07.793Z,91.16
2023-05-22T01:53:06.993Z,91.51
2023-05-22T01:54:08.692Z,91.71
2023-05-22T01:55:07.873Z,92.42
2023-05-22T01:56:06.963Z,92.97
2023-05-22T01:57:07.637Z,93.03
2023-05-22T01:58:06.916Z,92.93
2023-05-22T01:59:07.793Z,92.72
2023-05-22T02:00:06.902Z,92.42
2023-05-22T02:01:07.665Z,92.72
2023-05-22T02:02:06.937Z,93.44
2023-05-22T02:03:07.808Z,93.03
2023-05-22T02:04:06.908Z,93.03
2023-05-22T02:05:08.794Z,93.33
2023-05-22T02:06:07.655Z,93.74
2023-05-22T02:07:06.842Z,93.84
2023-05-22T02:08:08.448Z,93.84
2023-05-22T02:09:07.653Z,94.15
2023-05-22T02:10:07.423Z,94.05
2023-05-22T02:11:07.637Z,94.05
2023-05-22T02:12:07.486Z,93.95
2023-05-22T02:13:06.753Z,93.54
2023-05-22T02:14:08.413Z,93.49
2023-05-22T02:15:09.551Z,93.60
2023-05-22T02:16:07.575Z,93.60
2023-05-22T02:17:06.713Z,93.90
2023-05-22T02:18:07.454Z,93.80
2023-05-22T02:19:07.549Z,93.60
2023-05-22T02:20:07.416Z,93.19
2023-05-22T02:21:07.485Z,92.99
2023-05-22T02:22:06.683Z,92.79
2023-05-22T02:23:07.845Z,93.49
2023-05-22T02:24:07.475Z,93.90
2023-05-22T02:25:07.482Z,93.09
2023-05-22T02:26:07.449Z,92.99
2023-05-22T02:27:06.620Z,92.28
2023-05-22T02:28:07.398Z,92.58
2023-05-22T02:29:07.283Z,91.97
2023-05-22T02:30:07.413Z,91.77
2023-05-22T02:31:07.394Z,91.56
2023-05-22T02:32:07.373Z,92.48
2023-05-22T02:33:07.346Z,92.38
2023-05-22T02:34:06.572Z,91.16
2023-05-22T02:35:07.254Z,90.45
2023-05-22T02:36:06.546Z,90.45
2023-05-22T02:37:07.288Z,90.86
2023-05-22T02:38:07.073Z,90.45
2023-05-22T02:39:07.301Z,91.06
2023-05-22T02:40:07.120Z,90.66
2023-05-22T02:41:07.287Z,91.77
2023-05-22T02:42:07.076Z,91.36
2023-05-22T02:43:07.303Z,91.16
2023-05-22T02:44:06.435Z,90.75
2023-05-22T02:45:07.325Z,91.67
2023-05-22T02:46:07.228Z,90.35
2023-05-22T02:47:07.249Z,90.55
2023-05-22T02:48:07.095Z,90.55
2023-05-22T02:49:07.253Z,90.75
2023-05-22T02:50:07.105Z,91.00
2023-05-22T02:51:07.363Z,91.41
2023-05-22T02:52:07.129Z,91.71
2023-05-22T02:53:06.332Z,92.22
2023-05-22T02:54:07.151Z,92.72
2023-05-22T02:55:06.341Z,92.42
2023-05-22T02:56:07.900Z,91.71
2023-05-22T02:57:07.906Z,91.86
2023-05-22T02:58:06.284Z,92.67
2023-05-22T02:59:06.276Z,92.77
2023-05-22T03:00:07.091Z,92.87
2023-05-22T03:01:06.286Z,92.87
2023-05-22T03:02:07.155Z,92.57
2023-05-22T03:03:07.036Z,92.47
2023-05-22T03:04:07.190Z,92.77
2023-05-22T03:05:06.231Z,93.18
2023-05-22T03:06:07.360Z,92.77
2023-05-22T03:07:06.911Z,92.97
2023-05-22T03:08:06.760Z,92.97
2023-05-22T03:09:06.923Z,93.07
2023-05-22T03:10:06.800Z,93.18
2023-05-22T03:11:06.943Z,93.18
2023-05-22T03:12:06.781Z,93.18
2023-05-22T03:13:06.112Z,93.68
2023-05-22T03:14:06.929Z,93.48
2023-05-22T03:15:06.912Z,93.68
2023-05-22T03:16:06.155Z,93.89
2023-05-22T03:17:06.870Z,94.29
2023-05-22T03:18:06.838Z,94.90
2023-05-22T03:19:06.095Z,94.20
2023-05-22T03:20:07.587Z,93.89
2023-05-22T03:21:07.029Z,93.79
2023-05-22T03:22:06.032Z,93.99
2023-05-22T03:23:07.679Z,93.79
2023-05-22T03:24:07.068Z,93.48
2023-05-22T03:25:05.996Z,93.68
2023-05-22T03:26:07.546Z,93.68
2023-05-22T03:27:06.902Z,94.20
2023-05-22T03:28:06.802Z,93.79
2023-05-22T03:29:06.755Z,93.18
2023-05-22T03:30:06.766Z,92.57
2023-05-22T03:31:05.942Z,92.36
2023-05-22T03:32:06.727Z,91.82
2023-05-22T03:33:05.949Z,91.61
2023-05-22T03:34:07.577Z,91.82
2023-05-22T03:35:06.642Z,91.20
2023-05-22T03:36:06.753Z,91.10
2023-05-22T03:37:06.640Z,91.51
2023-05-22T03:38:05.864Z,91.20
2023-05-22T03:39:06.649Z,90.90
2023-05-22T03:40:05.857Z,90.90
2023-05-22T03:41:06.648Z,90.39
2023-05-22T03:42:06.467Z,90.49
2023-05-22T03:43:06.659Z,90.49
2023-05-22T03:44:06.449Z,90.70
2023-05-22T03:45:06.711Z,91.20
2023-05-22T03:46:06.579Z,91.30
2023-05-22T03:47:06.592Z,91.71
2023-05-22T03:48:06.574Z,91.30
2023-05-22T03:49:06.695Z,91.06
2023-05-22T03:50:06.474Z,90.86
2023-05-22T03:51:06.575Z,90.66
2023-05-22T03:52:05.717Z,90.75
2023-05-22T03:53:06.374Z,91.26
2023-05-22T03:54:06.534Z,91.77
2023-05-22T03:55:06.435Z,92.07
2023-05-22T03:56:06.492Z,92.38
2023-05-22T03:57:06.339Z,92.58
2023-05-22T03:58:06.496Z,92.72
2023-05-22T03:59:06.309Z,92.58
2023-05-22T04:00:06.532Z,92.38
2023-05-22T04:01:06.362Z,92.52
2023-05-22T04:02:05.690Z,93.03
2023-05-22T04:03:06.410Z,93.03
2023-05-22T04:04:05.589Z,92.83
2023-05-22T04:05:06.325Z,92.63
2023-05-22T04:06:06.409Z,92.18
2023-05-22T04:07:06.332Z,92.12
2023-05-22T04:08:05.541Z,92.28
2023-05-22T04:09:06.360Z,92.07
2023-05-22T04:10:05.523Z,91.56
2023-05-22T04:11:06.312Z,91.56
2023-05-22T04:12:05.502Z,91.36
2023-05-22T04:13:06.309Z,91.02
2023-05-22T04:14:06.161Z,90.81
2023-05-22T04:15:05.475Z,90.51
2023-05-22T04:16:06.216Z,90.47
2023-05-22T04:17:06.256Z,89.96
2023-05-22T04:18:05.547Z,89.25
2023-05-22T04:19:06.370Z,89.25
2023-05-22T04:20:05.420Z,88.84
2023-05-22T04:21:07.070Z,88.84
2023-05-22T04:22:06.133Z,88.60
2023-05-22T04:23:06.490Z,88.40
2023-05-22T04:24:06.208Z,88.64
2023-05-22T04:25:05.361Z,89.35
2023-05-22T04:26:06.209Z,89.21
2023-05-22T04:27:06.014Z,88.70
2023-05-22T04:28:05.362Z,88.80
2023-05-22T04:29:06.982Z,89.11
2023-05-22T04:30:06.137Z,89.21
2023-05-22T04:31:06.010Z,89.81
2023-05-22T04:32:05.301Z,89.92
2023-05-22T04:33:06.048Z,89.47
2023-05-22T04:34:06.050Z,89.37
2023-05-22T04:35:05.243Z,89.26
2023-05-22T04:36:06.113Z,89.02
2023-05-22T04:37:05.213Z,89.12
2023-05-22T04:38:05.860Z,89.02
2023-05-22T04:39:06.250Z,88.88
2023-05-22T04:40:05.842Z,88.68
2023-05-22T04:41:06.004Z,88.78
2023-05-22T04:42:05.830Z,89.08
2023-05-22T04:43:05.223Z,88.98
2023-05-22T04:44:06.505Z,88.88
2023-05-22T04:45:05.786Z,88.88
2023-05-22T04:46:05.131Z,88.57
2023-05-22T04:47:07.814Z,88.53
2023-05-22T04:48:05.884Z,88.43
2023-05-22T04:49:05.094Z,88.13
2023-05-22T04:50:05.880Z,88.13
2023-05-22T04:51:05.915Z,87.58
2023-05-22T04:52:05.816Z,87.18
2023-05-22T04:53:05.072Z,86.98
2023-05-22T04:54:06.027Z,87.08
2023-05-22T04:55:06.105Z,87.08
2023-05-22T04:56:05.821Z,87.68
2023-05-22T04:57:05.048Z,87.99
2023-05-22T04:58:06.799Z,87.68
2023-05-22T04:59:05.941Z,87.54
2023-05-22T05:00:05.843Z,87.04
2023-05-22T05:01:05.781Z,86.59
2023-05-22T05:02:05.811Z,86.15
2023-05-22T05:03:05.850Z,84.15
2023-05-22T05:04:05.928Z,81.75
2023-05-22T05:05:04.937Z,79.52
2023-05-22T05:06:06.621Z,76.29
2023-05-22T05:07:05.693Z,74.11
2023-05-22T05:08:06.428Z,72.09
2023-05-22T05:09:05.662Z,70.43
2023-05-22T05:10:05.468Z,68.96
2023-05-22T05:11:06.387Z,67.43
2023-05-22T05:12:06.221Z,67.09
2023-05-22T05:13:05.779Z,65.50
2023-05-22T05:14:05.488Z,63.14
2023-05-22T05:15:06.340Z,61.82
2023-05-22T05:16:06.206Z,62.29
2023-05-22T05:17:06.689Z,60.16
2023-05-22T05:18:05.820Z,61.19
2023-05-22T05:19:05.963Z,61.58
2023-05-22T05:20:05.494Z,61.39
2023-05-22T05:21:06.389Z,59.34
2023-05-22T05:22:05.512Z,59.18
2023-05-22T05:23:05.638Z,57.56
2023-05-22T05:24:04.721Z,57.81
2023-05-22T05:25:06.088Z,55.99
2023-05-22T05:26:04.727Z,54.77
2023-05-22T05:27:05.338Z,53.16
2023-05-22T05:28:05.621Z,53.58
2023-05-22T05:29:06.207Z,54.17
2023-05-22T05:30:04.842Z,53.98
2023-05-22T05:31:05.711Z,54.45
2023-05-22T05:32:05.523Z,54.64
2023-05-22T05:33:05.388Z,53.48
2023-05-22T05:34:06.166Z,54.87
2023-05-22T05:35:05.328Z,53.96
2023-05-22T05:36:05.704Z,53.85
2023-05-22T05:37:05.717Z,53.83
2023-05-22T05:38:05.544Z,53.23
2023-05-22T05:39:05.422Z,54.30
2023-05-22T05:40:05.287Z,56.64
2023-05-22T05:41:05.341Z,55.22
2023-05-22T05:42:05.512Z,55.19
2023-05-22T05:43:06.293Z,56.40
2023-05-22T05:44:05.450Z,57.09
2023-05-22T05:45:05.370Z,56.96
2023-05-22T05:46:05.849Z,54.93
2023-05-22T05:47:05.280Z,55.12
2023-05-22T05:48:05.930Z,57.22
2023-05-22T05:49:05.300Z,57.79
2023-05-22T05:50:05.277Z,56.57
2023-05-22T05:51:05.344Z,56.54
2023-05-22T05:52:05.191Z,55.32
2023-05-22T05:53:05.005Z,55.62
2023-05-22T05:54:05.235Z,55.02
2023-05-22T05:55:05.021Z,56.02
2023-05-22T05:56:05.191Z,55.10
2023-05-22T05:57:05.062Z,54.57
2023-05-22T05:58:05.169Z,54.47
2023-05-22T05:59:05.091Z,55.42
2023-05-22T06:00:05.195Z,56.54
2023-05-22T06:01:05.125Z,57.36
2023-05-22T06:02:05.253Z,57.59
2023-05-22T06:03:05.050Z,57.14
2023-05-22T06:04:05.622Z,57.46
2023-05-22T06:05:05.169Z,58.48
2023-05-22T06:06:05.168Z,57.11
2023-05-22T06:07:05.093Z,55.47
2023-05-22T06:08:04.866Z,53.31
2023-05-22T06:09:05.354Z,52.78
2023-05-22T06:10:05.066Z,52.26
2023-05-22T06:11:05.091Z,52.44
2023-05-22T06:12:04.884Z,51.62
2023-05-22T06:13:05.101Z,50.21
2023-05-22T06:14:05.036Z,50.09
2023-05-22T06:15:05.133Z,50.83
2023-05-22T06:16:06.526Z,52.12
2023-05-22T06:17:04.934Z,49.82
2023-05-22T06:18:05.003Z,49.67
2023-05-22T06:19:05.202Z,49.52
2023-05-22T06:20:05.052Z,49.20
2023-05-22T06:21:04.953Z,48.98
2023-05-22T06:24:12.177Z,48.98
2023-05-22T06:25:12.759Z,49.08
2023-05-22T06:36:08.992Z,52.24
2023-05-22T06:37:08.893Z,53.08
2023-05-22T06:38:09.043Z,54.62
2023-05-22T06:39:08.897Z,54.10
2023-05-22T06:40:09.151Z,52.41
2023-05-22T06:41:09.009Z,51.18
2023-05-22T06:42:09.011Z,49.96
2023-05-22T06:43:08.875Z,48.44
2023-05-22T06:44:09.052Z,48.19
2023-05-22T06:45:08.896Z,46.18
2023-05-22T06:46:09.395Z,45.96
2023-05-22T06:47:08.940Z,45.05
2023-05-22T06:48:08.801Z,44.29
2023-05-22T06:49:08.876Z,45.71
2023-05-22T06:50:08.786Z,48.56
2023-05-22T06:51:08.838Z,49.48
2023-05-22T06:52:08.728Z,49.35
2023-05-22T06:53:09.059Z,48.71
2023-05-22T06:54:08.868Z,47.36
2023-05-22T06:55:08.853Z,45.35
2023-05-22T06:56:08.974Z,44.76
2023-05-22T06:57:08.818Z,45.23
2023-05-22T06:58:08.883Z,44.32
2023-05-22T06:59:08.939Z,45.20
2023-05-22T07:00:08.746Z,43.63
2023-05-22T07:01:08.101Z,44.91
2023-05-22T07:02:08.704Z,44.10
2023-05-22T07:03:08.675Z,43.98
2023-05-22T07:04:09.236Z,42.29
2023-05-22T07:05:08.780Z,43.80
2023-05-22T07:06:08.785Z,43.10
2023-05-22T07:07:08.606Z,42.90
2023-05-22T07:08:08.752Z,43.04
2023-05-22T07:09:08.499Z,43.49
2023-05-22T07:10:08.689Z,43.08
2023-05-22T07:11:08.728Z,41.98
2023-05-22T07:12:08.640Z,42.76
2023-05-22T07:13:08.593Z,42.25
2023-05-22T07:14:08.687Z,41.86
2023-05-22T07:15:08.576Z,41.78
2023-05-22T07:16:08.726Z,42.82
2023-05-22T07:17:08.562Z,43.24
2023-05-22T07:18:08.444Z,43.85
2023-05-22T07:19:08.649Z,42.65
2023-05-22T07:20:08.403Z,43.02
2023-05-22T07:21:08.543Z,43.39
2023-05-22T07:22:08.397Z,42.10
2023-05-22T07:23:08.646Z,42.86
2023-05-22T07:24:08.546Z,41.61
2023-05-22T07:25:08.537Z,41.72
2023-05-22T07:26:08.431Z,42.47
2023-05-22T07:27:08.544Z,40.90
2023-05-22T07:28:08.477Z,41.90
2023-05-22T07:29:07.694Z,41.37
2023-05-22T07:30:08.516Z,41.25
2023-05-22T07:31:08.462Z,40.27
2023-05-22T07:32:08.355Z,41.64
2023-05-22T07:33:08.258Z,41.66
2023-05-22T07:34:08.396Z,40.43
2023-05-22T07:35:08.235Z,40.68
2023-05-22T07:36:08.469Z,39.10
2023-05-22T07:37:08.299Z,38.18
2023-05-22T07:38:08.400Z,37.38
2023-05-22T07:39:08.237Z,37.60
2023-05-22T07:40:08.465Z,38.63
2023-05-22T07:41:08.474Z,40.23
2023-05-22T07:42:08.362Z,42.41
2023-05-22T07:43:08.330Z,43.33
2023-05-22T07:44:08.392Z,42.92
2023-05-22T07:45:08.304Z,43.08
2023-05-22T07:46:08.376Z,42.58
2023-05-22T07:47:08.234Z,42.55
2023-05-22T07:48:08.385Z,41.03
2023-05-22T07:49:08.373Z,40.11
2023-05-22T07:50:08.125Z,41.39
2023-05-22T07:51:08.254Z,40.86
2023-05-22T07:52:08.137Z,41.35
2023-05-22T07:53:08.214Z,41.37
2023-05-22T07:54:08.110Z,41.84
2023-05-22T07:55:08.263Z,39.82
2023-05-22T07:56:08.122Z,39.23
2023-05-22T07:57:08.235Z,39.47
2023-05-22T07:58:08.053Z,41.39
2023-05-22T07:59:08.191Z,41.37
2023-05-22T08:00:08.110Z,40.64
2023-05-22T08:01:09.516Z,39.90
2023-05-22T08:02:08.057Z,38.40
2023-05-22T08:03:08.323Z,39.43
2023-05-22T08:04:08.449Z,37.93
2023-05-22T08:05:07.918Z,36.86
2023-05-22T08:06:08.089Z,36.84
2023-05-22T08:07:07.964Z,36.94
2023-05-22T08:08:08.043Z,36.16
2023-05-22T08:09:07.894Z,38.24
2023-05-22T08:10:08.090Z,37.63
2023-05-22T08:11:08.210Z,37.52
2023-05-22T08:12:08.074Z,35.75
2023-05-22T08:13:07.989Z,37.27
2023-05-22T08:14:08.000Z,36.74
2023-05-22T08:15:07.950Z,35.78
2023-05-22T08:16:08.180Z,35.67
2023-05-22T08:17:08.026Z,36.16
2023-05-22T08:18:07.997Z,35.85
2023-05-22T08:19:08.083Z,35.83
2023-05-22T08:20:08.128Z,35.31
2023-05-22T08:21:07.953Z,35.23
2023-05-22T08:22:07.798Z,36.98
2023-05-22T08:23:07.924Z,36.55
2023-05-22T08:24:08.010Z,36.45
2023-05-22T08:25:07.980Z,35.94
2023-05-22T08:26:07.755Z,36.71
2023-05-22T08:27:07.939Z,35.15
2023-05-22T08:28:07.786Z,34.95
2023-05-22T08:29:07.914Z,35.73
2023-05-22T08:30:07.771Z,35.02
2023-05-22T08:31:08.014Z,34.35
2023-05-22T08:32:07.817Z,35.08
2023-05-22T08:33:07.887Z,36.39
2023-05-22T08:34:07.827Z,35.77
2023-05-22T08:35:07.806Z,34.89
2023-05-22T08:36:07.775Z,35.18
2023-05-22T08:37:07.009Z,36.08
2023-05-22T08:38:07.851Z,36.91
2023-05-22T08:39:07.630Z,37.29
2023-05-22T08:40:07.760Z,37.50
2023-05-22T08:41:07.696Z,37.41
2023-05-22T08:42:07.818Z,37.62
2023-05-22T08:43:07.574Z,37.63
2023-05-22T08:44:07.753Z,37.29
2023-05-22T08:45:07.584Z,37.54
2023-05-22T08:46:07.763Z,36.58
2023-05-22T08:47:07.669Z,37.27
2023-05-22T08:48:07.852Z,36.82
2023-05-22T08:49:07.702Z,37.30
2023-05-22T08:50:07.652Z,36.60
2023-05-22T08:51:07.571Z,36.76
2023-05-22T08:52:07.471Z,37.13
2023-05-22T08:53:07.610Z,37.35
2023-05-22T08:54:07.458Z,36.65
2023-05-22T08:55:07.670Z,36.16
2023-05-22T08:56:07.461Z,36.22
2023-05-22T08:57:07.568Z,35.03
2023-05-22T08:58:07.418Z,34.99
2023-05-22T08:59:07.607Z,35.49
2023-05-22T09:00:07.481Z,36.49
2023-05-22T09:01:07.719Z,35.78
2023-05-22T09:02:07.447Z,36.06
2023-05-22T09:03:07.754Z,35.49
2023-05-22T09:04:07.470Z,35.10
2023-05-22T09:05:07.651Z,35.53
2023-05-22T09:06:07.610Z,37.14
2023-05-22T09:07:07.510Z,38.28
2023-05-22T09:08:19.163Z,37.25
2023-05-22T09:09:07.281Z,35.16
2023-05-22T09:10:06.683Z,35.34
2023-05-22T09:11:07.283Z,35.65
2023-05-22T09:12:07.681Z,35.38
2023-05-22T09:13:07.414Z,35.25
2023-05-22T09:14:07.506Z,34.76
2023-05-22T09:15:07.243Z,34.47
2023-05-22T09:16:07.408Z,35.06
2023-05-22T09:17:07.565Z,35.80
2023-05-22T09:18:06.635Z,34.97
2023-05-22T09:19:07.386Z,33.61
2023-05-22T09:20:07.354Z,35.80
2023-05-22T09:21:17.774Z,35.82
2023-05-22T09:22:07.355Z,36.37
2023-05-22T09:23:07.267Z,36.18
2023-05-22T09:24:07.094Z,34.89
2023-05-22T09:25:07.349Z,36.22
2023-05-22T09:26:07.148Z,34.39
2023-05-22T09:27:07.289Z,34.39
2023-05-22T09:28:06.465Z,34.48
2023-05-22T09:29:07.255Z,34.31
2023-05-22T09:30:07.312Z,34.81
2023-05-22T09:31:07.356Z,35.08
2023-05-22T09:32:07.182Z,34.89
2023-05-22T09:33:07.362Z,36.11
2023-05-22T09:34:07.235Z,36.78
2023-05-22T09:35:07.248Z,36.29
2023-05-22T09:36:07.267Z,36.29
2023-05-22T09:37:07.214Z,35.08
2023-05-22T09:38:07.268Z,34.56
2023-05-22T09:39:06.936Z,33.85
2023-05-22T09:40:07.218Z,34.66
2023-05-22T09:41:07.272Z,35.28
2023-05-22T09:42:07.776Z,35.10
2023-05-22T09:43:07.042Z,35.14
2023-05-22T09:44:07.882Z,35.49
2023-05-22T09:45:07.045Z,33.80
2023-05-22T09:46:07.225Z,34.61
2023-05-22T09:47:07.050Z,35.30
2023-05-22T09:48:07.254Z,35.30
2023-05-22T09:49:07.066Z,35.06
2023-05-22T09:50:07.199Z,34.78
2023-05-22T09:51:07.156Z,34.68
2023-05-22T09:52:07.097Z,34.17
2023-05-22T09:53:06.951Z,33.18
2023-05-22T09:54:07.146Z,34.29
2023-05-22T09:55:07.093Z,35.18
2023-05-22T09:56:06.874Z,34.99
2023-05-22T09:57:06.952Z,34.89
2023-05-22T09:58:06.820Z,35.46
2023-05-22T09:59:07.028Z,35.36
2023-05-22T10:00:06.766Z,34.50
2023-05-22T10:01:06.968Z,35.78
2023-05-22T10:02:06.960Z,35.39
2023-05-22T10:03:06.923Z,35.38
2023-05-22T10:04:06.861Z,35.88
2023-05-22T10:05:06.942Z,35.55
2023-05-22T10:06:06.880Z,37.30
2023-05-22T10:07:06.935Z,37.48
2023-05-22T10:08:06.906Z,36.52
2023-05-22T10:09:06.961Z,36.54
2023-05-22T10:10:07.017Z,37.27
2023-05-22T10:11:06.635Z,38.10
2023-05-22T10:12:06.909Z,35.82
2023-05-22T10:13:06.657Z,37.21
2023-05-22T10:14:06.811Z,36.80
2023-05-22T10:15:06.648Z,36.94
2023-05-22T10:16:06.946Z,36.73
2023-05-22T10:17:06.731Z,36.80
2023-05-22T10:18:06.845Z,35.49
2023-05-22T10:19:06.718Z,35.67
2023-05-22T10:20:06.795Z,35.18
2023-05-22T10:21:06.849Z,34.69
2023-05-22T10:22:06.838Z,35.00
2023-05-22T10:23:06.726Z,35.61
2023-05-22T10:24:06.958Z,35.98
2023-05-22T10:25:08.546Z,35.88
2023-05-22T10:26:06.686Z,35.08
2023-05-22T10:27:06.820Z,35.51
2023-05-22T10:28:06.546Z,36.19
2023-05-22T10:29:06.922Z,36.10
2023-05-22T10:30:06.513Z,34.50
2023-05-22T10:31:06.855Z,35.59
2023-05-22T10:32:06.534Z,35.41
2023-05-22T10:33:06.754Z,35.78
2023-05-22T10:34:07.597Z,36.70
2023-05-22T10:35:06.691Z,36.00
2023-05-22T10:36:06.544Z,35.47
2023-05-22T10:37:16.994Z,34.79
2023-05-22T10:38:06.508Z,36.19
2023-05-22T10:39:06.817Z,37.48
2023-05-22T10:40:06.585Z,36.33
2023-05-22T10:41:06.581Z,37.12
2023-05-22T10:42:06.544Z,36.90
2023-05-22T10:43:06.551Z,36.27
2023-05-22T10:44:06.600Z,35.71
2023-05-22T10:45:06.329Z,36.00
2023-05-22T10:46:06.545Z,36.31
2023-05-22T10:47:06.292Z,35.72
2023-05-22T10:48:06.571Z,36.90
2023-05-22T10:49:06.316Z,37.05
2023-05-22T10:50:06.601Z,34.97
2023-05-22T10:51:06.345Z,35.28
2023-05-22T10:52:06.530Z,35.90
2023-05-22T10:53:06.490Z,36.72
2023-05-22T10:54:06.522Z,36.49
2023-05-22T10:55:06.507Z,35.22
2023-05-22T10:56:06.651Z,36.52
2023-05-22T10:57:06.510Z,37.54
2023-05-22T10:58:06.393Z,37.67
2023-05-22T10:59:06.371Z,38.78
2023-05-22T11:00:06.173Z,38.80
2023-05-22T11:01:06.332Z,39.39
2023-05-22T11:02:06.293Z,39.62
2023-05-22T11:03:17.332Z,40.94
2023-05-22T11:04:06.230Z,40.25
2023-05-22T11:05:06.551Z,40.96
2023-05-22T11:06:06.290Z,41.55
2023-05-22T11:07:06.361Z,42.16
2023-05-22T11:08:06.670Z,43.75
2023-05-22T11:09:06.310Z,45.05
2023-05-22T11:10:06.230Z,44.54
2023-05-22T11:11:05.492Z,44.07
2023-05-22T11:12:06.181Z,44.56
2023-05-22T11:13:06.285Z,43.79
2023-05-22T11:14:05.470Z,44.51
2023-05-22T11:15:06.194Z,45.17
2023-05-22T11:16:06.130Z,44.29
2023-05-22T11:17:06.090Z,44.19
2023-05-22T11:18:06.258Z,42.71
2023-05-22T11:20:06.402Z,43.84
2023-05-22T11:21:06.030Z,43.15
2023-05-22T11:22:06.211Z,43.93
2023-05-22T11:23:06.013Z,44.65
2023-05-22T11:24:06.122Z,44.06
2023-05-22T11:25:05.994Z,43.56
2023-05-22T11:26:06.202Z,43.86
2023-05-22T11:27:06.059Z,43.78
2023-05-22T11:28:06.071Z,43.01
2023-05-22T11:29:06.002Z,44.49
2023-05-22T11:30:06.105Z,44.00
2023-05-22T11:31:06.117Z,43.70
2023-05-22T11:32:05.872Z,44.00
2023-05-22T11:33:05.290Z,44.24
2023-05-22T11:34:05.866Z,44.64
2023-05-22T11:35:06.086Z,44.54
2023-05-22T11:36:05.987Z,44.22
2023-05-22T11:37:06.061Z,43.43
2023-05-22T11:38:05.948Z,42.24
2023-05-22T11:39:05.958Z,42.54
2023-05-22T11:40:05.893Z,44.00
2023-05-22T11:41:06.938Z,43.60
2023-05-22T11:42:05.970Z,43.78
2023-05-22T11:43:06.060Z,43.78
2023-05-22T11:44:05.853Z,43.19
2023-05-22T11:45:05.921Z,43.29
2023-05-22T11:46:05.878Z,43.70
2023-05-22T11:47:05.893Z,43.51
2023-05-22T11:48:05.960Z,43.21
2023-05-22T11:49:05.762Z,43.73
2023-05-22T11:50:05.948Z,42.74
2023-05-22T11:51:05.685Z,43.15
2023-05-22T11:52:05.919Z,44.43
2023-05-22T11:53:06.735Z,44.14
2023-05-22T11:54:05.901Z,42.96
2023-05-22T11:55:05.813Z,42.26
2023-05-22T11:56:05.925Z,42.66
2023-05-22T11:57:05.766Z,43.57
2023-05-22T11:58:05.778Z,43.87
2023-05-22T11:59:06.421Z,44.26
2023-05-22T12:00:05.844Z,44.26
2023-05-22T12:01:05.734Z,44.85
2023-05-22T12:02:05.934Z,44.04
2023-05-22T12:03:05.698Z,43.65
2023-05-22T12:04:05.639Z,42.76
2023-05-22T12:05:05.774Z,43.25
2023-05-22T12:06:05.607Z,42.74
2023-05-22T12:07:05.672Z,42.26
2023-05-22T12:08:05.598Z,42.58
2023-05-22T12:09:05.715Z,42.46
2023-05-22T12:10:05.540Z,42.46
2023-05-22T12:11:05.696Z,42.46
2023-05-22T12:12:05.574Z,43.07
2023-05-22T12:13:05.911Z,42.97
2023-05-22T12:14:05.678Z,42.16
2023-05-22T12:15:05.610Z,42.36
2023-05-22T12:16:05.652Z,42.46
2023-05-22T12:17:05.643Z,41.77
2023-05-22T12:18:05.634Z,42.26
2023-05-22T12:19:05.467Z,41.97
2023-05-22T12:20:05.574Z,42.66
2023-05-22T12:21:05.534Z,43.05
2023-05-22T12:22:05.618Z,42.93
2023-05-22T12:23:05.381Z,42.44
2023-05-22T12:24:05.571Z,42.08
2023-05-22T12:25:05.424Z,42.29
2023-05-22T12:26:05.582Z,43.37
2023-05-22T12:27:05.361Z,43.17
2023-05-22T12:28:05.560Z,42.76
2023-05-22T12:29:05.379Z,41.89
2023-05-22T12:30:05.540Z,41.99
2023-05-22T12:31:05.442Z,43.27
2023-05-22T12:32:05.492Z,43.66
2023-05-22T12:33:06.609Z,43.57
2023-05-22T12:34:05.458Z,42.68
2023-05-22T12:35:05.426Z,43.17
2023-05-22T12:36:05.219Z,43.07
2023-05-22T12:37:05.347Z,43.66
2023-05-22T12:38:05.287Z,44.65
2023-05-22T12:39:04.581Z,44.56
2023-05-22T12:40:05.933Z,44.36
2023-05-22T12:41:06.302Z,44.46
2023-05-22T12:42:05.270Z,43.69
2023-05-22T12:43:05.315Z,43.88
2023-05-22T12:44:05.320Z,43.10
2023-05-22T12:45:05.324Z,43.21
2023-05-22T12:46:05.263Z,44.01
2023-05-22T12:47:05.255Z,44.90
2023-05-22T12:48:04.543Z,44.78
2023-05-22T12:49:05.274Z,44.68
2023-05-22T12:50:05.535Z,43.79
2023-05-22T12:51:05.018Z,43.69
2023-05-22T12:52:05.326Z,43.69
2023-05-22T12:53:05.134Z,44.09
2023-05-22T12:54:05.204Z,44.87
2023-05-22T12:55:05.053Z,45.07
2023-05-22T12:56:05.326Z,45.17
2023-05-22T12:57:05.126Z,44.68
2023-05-22T12:58:05.216Z,44.87
2023-05-22T12:59:05.081Z,43.10
2023-05-22T13:00:04.408Z,43.88
2023-05-22T13:01:05.109Z,43.98
2023-05-22T13:02:05.467Z,43.31
2023-05-22T13:03:05.080Z,44.50
2023-05-22T13:04:05.145Z,44.50
2023-05-22T13:05:05.132Z,44.80